Time;durP1;ratioP1;P1;durP2;ratioP2;P2;SDS_P1;SDS_P2;PMS_P1;PMS_P2;Temp;Humidity;BMP_temperature;BMP_pressure;BME280_temperature;BME280_humidity;BME280_pressure;Samples;Min_cycle;Max_cycle;Signal;HPM_P1;HPM_P2
2022/08/03 00:01:51;;;;;;;13.93;4.20;;;19.60;99.90;;;;;;5114186;27;20414;-74
2022/08/03 00:04:17;;;;;;;12.33;4.23;;;19.70;99.90;;;;;;5129340;27;20406;-74
2022/08/03 00:06:42;;;;;;;9.02;3.75;;;19.40;99.90;;;;;;5114608;27;20483;-74
2022/08/03 00:09:08;;;;;;;12.20;3.85;;;19.80;99.90;;;;;;5129054;27;20414;-75
2022/08/03 00:11:35;;;;;;;10.57;3.80;;;19.60;99.90;;;;;;5132193;27;20405;-75
2022/08/03 00:14:01;;;;;;;10.67;3.70;;;;;;;;;;5132462;27;20403;-75
2022/08/03 00:16:27;;;;;;;12.52;3.78;;;19.30;99.90;;;;;;5132047;27;20394;-75
2022/08/03 00:18:52;;;;;;;14.43;4.30;;;19.40;99.90;;;;;;5113963;27;20445;-76
2022/08/03 00:21:18;;;;;;;8.13;4.07;;;19.10;99.90;;;;;;5094663;28;20746;-76
2022/08/03 00:23:44;;;;;;;10.93;3.97;;;19.40;99.90;;;;;;5111518;28;20434;-76
2022/08/03 00:26:09;;;;;;;10.40;3.83;;;19.40;99.90;;;;;;5105088;27;20810;-76
2022/08/03 00:28:35;;;;;;;13.60;4.10;;;19.50;99.90;;;;;;5132083;27;20398;-76
2022/08/03 00:31:01;;;;;;;10.87;3.70;;;19.30;99.90;;;;;;5114863;27;20494;-77
2022/08/03 00:33:26;;;;;;;9.40;3.78;;;19.30;99.90;;;;;;5115155;27;20402;-76
2022/08/03 00:35:52;;;;;;;10.85;3.80;;;19.30;99.90;;;;;;5132152;27;20462;-76
2022/08/03 00:38:18;;;;;;;13.43;3.67;;;19.30;99.90;;;;;;5131815;27;20414;-76
2022/08/03 00:40:45;;;;;;;11.45;3.70;;;;;;;;;;5131846;27;20999;-76
2022/08/03 00:43:10;;;;;;;11.15;3.60;;;19.10;99.90;;;;;;5131736;27;20898;-77
2022/08/03 00:45:40;;;;;;;10.20;4.00;;;19.20;99.90;;;;;;5114839;28;20415;-77
2022/08/03 00:48:07;;;;;;;8.88;3.63;;;19.50;99.90;;;;;;5131851;28;20406;-76
2022/08/03 00:50:35;;;;;;;12.63;3.65;;;19.00;99.90;;;;;;5131749;28;20902;-76
2022/08/03 00:53:03;;;;;;;8.30;3.60;;;19.20;99.90;;;;;;5131705;28;20398;-76
2022/08/03 00:55:29;;;;;;;10.32;3.40;;;19.00;99.90;;;;;;5131621;28;20449;-76
2022/08/03 00:57:56;;;;;;;11.00;3.53;;;19.10;99.90;;;;;;5083115;28;20453;-76
2022/08/03 01:00:26;;;;;;;10.00;3.50;;;19.10;99.90;;;;;;5111258;28;20406;-76
2022/08/03 01:02:52;;;;;;;9.80;3.40;;;19.10;99.90;;;;;;5111094;28;20412;-76
2022/08/03 01:05:20;;;;;;;9.23;3.33;;;19.20;99.90;;;;;;5133909;27;20487;-76
2022/08/03 01:07:53;;;;;;;6.90;3.17;;;19.10;99.90;;;;;;5114418;28;20489;-76
2022/08/03 01:10:22;;;;;;;5.83;2.73;;;;;;;;;;5132263;27;21022;-76
2022/08/03 01:13:23;;;;;;;8.33;2.87;;;19.10;99.90;;;;;;5135652;27;20402;-76
2022/08/03 01:15:59;;;;;;;9.15;2.90;;;19.00;99.90;;;;;;5102694;27;20497;-73
2022/08/03 01:18:41;;;;;;;9.10;3.20;;;19.00;99.90;;;;;;5115299;27;20425;-74
2022/08/03 01:21:18;;;;;;;11.48;3.08;;;19.00;99.90;;;;;;5134412;27;20418;-73
2022/08/03 01:24:02;;;;;;;8.88;2.92;;;19.00;99.90;;;;;;5126112;27;20430;-73
2022/08/03 01:26:50;;;;;;;8.18;2.80;;;19.10;99.90;;;;;;5133055;27;20406;-74
2022/08/03 01:29:49;;;;;;;8.00;3.10;;;19.10;99.90;;;;;;5126809;27;20501;-73
2022/08/03 01:32:20;;;;;;;8.13;2.83;;;18.80;99.90;;;;;;5115971;27;20410;-73
2022/08/03 01:35:01;;;;;;;9.07;2.90;;;19.00;99.90;;;;;;5136115;27;20390;-73
2022/08/03 01:37:35;;;;;;;7.70;2.80;;;19.10;99.90;;;;;;5135498;27;20426;-75
2022/08/03 01:40:03;;;;;;;8.20;2.50;;;19.10;99.90;;;;;;5135019;27;20409;-75
2022/08/03 01:42:33;;;;;;;7.57;2.67;;;19.00;99.90;;;;;;5136002;27;20446;-75
2022/08/03 01:45:00;;;;;;;8.05;2.50;;;19.00;99.90;;;;;;5135096;27;20423;-76
2022/08/03 01:47:28;;;;;;;7.70;2.50;;;19.30;99.90;;;;;;5118123;27;20392;-76
2022/08/03 01:49:56;;;;;;;8.02;2.70;;;19.10;99.90;;;;;;5127947;27;20417;-75
2022/08/03 01:52:23;;;;;;;7.40;2.57;;;19.00;99.90;;;;;;5109390;27;20418;-75
2022/08/03 01:54:52;;;;;;;7.03;2.72;;;19.20;99.90;;;;;;5115943;27;20821;-75
2022/08/03 01:57:18;;;;;;;7.72;2.50;;;;;;;;;;5114055;28;20436;-75
2022/08/03 01:59:47;;;;;;;7.20;2.40;;;19.00;99.90;;;;;;5123676;27;20796;-75
2022/08/03 02:02:15;;;;;;;8.98;2.58;;;19.00;99.90;;;;;;5130560;27;20494;-76
2022/08/03 02:04:43;;;;;;;6.93;2.78;;;19.20;99.90;;;;;;5135046;27;20808;-76
2022/08/03 02:07:10;;;;;;;7.30;2.40;;;19.20;99.90;;;;;;5136181;27;20897;-76
2022/08/03 02:09:40;;;;;;;8.70;2.45;;;19.20;99.90;;;;;;5134925;27;20391;-76
2022/08/03 02:12:11;;;;;;;11.57;2.88;;;19.10;99.90;;;;;;5134627;27;20406;-75
2022/08/03 02:14:39;;;;;;;8.38;2.63;;;19.20;99.90;;;;;;5120504;27;20953;-76
2022/08/03 02:17:07;;;;;;;7.30;2.80;;;19.30;99.90;;;;;;5113869;28;20400;-76
2022/08/03 02:19:34;;;;;;;9.93;2.90;;;19.30;99.90;;;;;;5113075;27;20505;-76
2022/08/03 02:22:00;;;;;;;8.25;2.92;;;19.10;99.90;;;;;;5114771;27;20944;-76
2022/08/03 02:24:27;;;;;;;7.30;2.58;;;19.10;99.90;;;;;;5098940;27;20463;-76
2022/08/03 02:26:55;;;;;;;7.47;2.57;;;19.10;99.90;;;;;;5134095;27;20395;-76
2022/08/03 02:29:25;;;;;;;9.40;2.67;;;19.30;99.90;;;;;;5134022;27;20917;-74
2022/08/03 02:31:53;;;;;;;7.63;3.05;;;19.10;99.90;;;;;;5133669;27;20398;-74
2022/08/03 02:34:23;;;;;;;7.40;2.80;;;19.10;99.90;;;;;;5123174;27;20929;-74
2022/08/03 02:36:52;;;;;;;9.38;2.78;;;19.10;99.90;;;;;;5131328;27;20425;-74
2022/08/03 02:39:20;;;;;;;8.88;2.90;;;18.90;99.90;;;;;;5132734;27;20474;-74
2022/08/03 02:41:54;;;;;;;7.70;2.85;;;18.90;99.90;;;;;;5118275;27;20937;-74
2022/08/03 02:44:24;;;;;;;8.18;3.05;;;18.80;99.90;;;;;;5118828;27;21263;-74
2022/08/03 02:46:54;;;;;;;10.57;3.05;;;18.70;99.90;;;;;;5121089;27;20414;-73
2022/08/03 02:49:20;;;;;;;9.77;3.22;;;;;;;;;;5126756;27;20408;-74
2022/08/03 02:51:47;;;;;;;8.73;2.90;;;;;;;;;;5112731;28;20483;-74
2022/08/03 02:54:17;;;;;;;9.75;3.33;;;18.90;99.90;;;;;;5112686;28;20401;-74
2022/08/03 02:56:45;;;;;;;11.93;3.20;;;18.90;99.90;;;;;;5113251;27;20506;-74
2022/08/03 02:59:12;;;;;;;11.63;3.30;;;18.70;99.90;;;;;;5131132;27;20446;-74
2022/08/03 03:01:38;;;;;;;12.37;3.40;;;18.50;99.90;;;;;;5125735;27;20990;-74
2022/08/03 03:04:04;;;;;;;10.00;3.38;;;18.60;99.90;;;;;;5133089;27;20942;-74
2022/08/03 03:06:31;;;;;;;9.67;3.17;;;18.60;99.90;;;;;;5120524;27;20453;-74
2022/08/03 03:08:58;;;;;;;13.45;3.58;;;18.70;99.90;;;;;;5106588;27;20412;-74
2022/08/03 03:11:25;;;;;;;6.68;2.95;;;18.80;99.90;;;;;;5112524;28;20462;-74
2022/08/03 03:13:52;;;;;;;10.43;3.20;;;18.80;99.90;;;;;;5123366;27;20416;-74
2022/08/03 03:16:18;;;;;;;10.93;3.20;;;18.70;99.90;;;;;;5124888;27;20416;-74
2022/08/03 03:18:46;;;;;;;9.73;3.00;;;;;;;;;;5112321;28;20408;-74
2022/08/03 03:21:15;;;;;;;9.82;3.40;;;18.70;99.90;;;;;;5127512;27;20851;-74
2022/08/03 03:23:42;;;;;;;9.02;3.22;;;18.60;99.90;;;;;;5123658;27;20503;-74
2022/08/03 03:26:08;;;;;;;12.03;3.70;;;;;;;;;;5113329;28;20450;-74
2022/08/03 03:28:38;;;;;;;8.85;3.40;;;18.50;99.90;;;;;;5106460;28;20506;-74
2022/08/03 03:31:08;;;;;;;10.25;3.95;;;18.60;99.90;;;;;;5113432;27;20451;-75
2022/08/03 03:33:34;;;;;;;7.80;3.42;;;;;;;;;;5129645;27;21318;-74
2022/08/03 03:36:00;;;;;;;8.17;3.30;;;18.40;99.90;;;;;;5132409;27;20498;-74
2022/08/03 03:38:26;;;;;;;10.63;3.70;;;18.70;99.90;;;;;;5115740;27;20420;-74
2022/08/03 03:40:52;;;;;;;9.13;3.33;;;;;;;;;;5112250;27;20420;-74
2022/08/03 03:43:18;;;;;;;11.63;3.80;;;18.20;99.90;;;;;;5110478;27;20427;-74
2022/08/03 03:45:45;;;;;;;10.63;3.45;;;18.40;99.90;;;;;;5127932;27;20410;-74
2022/08/03 03:48:12;;;;;;;12.45;3.80;;;;;;;;;;5132058;27;20405;-74
2022/08/03 03:50:39;;;;;;;10.02;3.55;;;;;;;;;;5130582;27;20479;-74
2022/08/03 03:53:09;;;;;;;10.82;3.72;;;18.20;99.90;;;;;;5128556;27;20534;-74
2022/08/03 03:55:35;;;;;;;9.35;3.72;;;;;;;;;;5132464;27;20417;-75
2022/08/03 03:58:02;;;;;;;14.10;3.78;;;18.20;99.90;;;;;;5132553;27;20398;-75
2022/08/03 04:00:29;;;;;;;9.57;3.78;;;18.30;99.90;;;;;;5132710;27;20873;-75
2022/08/03 04:02:54;;;;;;;11.18;3.50;;;18.30;99.90;;;;;;5132216;27;20912;-75
2022/08/03 04:11:18;;;;;;;9.93;3.80;;;18.20;99.90;;;;;;5111753;28;20938;-75
2022/08/03 04:13:55;;;;;;;8.57;3.47;;;18.30;99.90;;;;;;5125999;27;20754;-75
2022/08/03 04:16:25;;;;;;;10.70;4.00;;;18.20;99.90;;;;;;5114934;27;20440;-74
2022/08/03 04:18:56;;;;;;;12.52;3.70;;;18.30;99.90;;;;;;5132071;27;20406;-74
2022/08/03 04:21:23;;;;;;;8.52;3.55;;;18.00;99.90;;;;;;5132087;27;20395;-75
2022/08/03 04:23:54;;;;;;;9.57;3.60;;;18.00;99.90;;;;;;5114912;28;20428;-75
2022/08/03 04:26:22;;;;;;;10.07;3.63;;;18.50;99.90;;;;;;5129103;27;20744;-75
2022/08/03 04:28:50;;;;;;;13.30;3.67;;;18.40;99.90;;;;;;5111839;28;20397;-75
2022/08/03 04:31:17;;;;;;;9.80;4.13;;;18.20;99.90;;;;;;5111588;28;20408;-75
2022/08/03 04:33:43;;;;;;;7.78;3.90;;;18.40;99.90;;;;;;5094725;28;20467;-75
2022/08/03 04:36:14;;;;;;;9.73;3.70;;;18.60;99.90;;;;;;5094605;28;20764;-76
2022/08/03 04:38:59;;;;;;;11.55;3.70;;;18.50;99.90;;;;;;5111712;28;20404;-75
2022/08/03 04:41:27;;;;;;;11.07;3.83;;;18.60;99.90;;;;;;5094166;28;20404;-75
2022/08/03 04:43:58;;;;;;;9.73;4.00;;;18.60;99.90;;;;;;5110803;28;21017;-75
2022/08/03 04:46:36;;;;;;;9.60;3.40;;;18.40;99.90;;;;;;5112482;28;20404;-76
2022/08/03 04:49:02;;;;;;;9.75;3.95;;;18.70;99.90;;;;;;5114066;28;20525;-76
2022/08/03 04:51:29;;;;;;;11.23;3.90;;;;;;;;;;5111574;28;20465;-75
2022/08/03 04:53:54;;;;;;;11.05;4.05;;;18.40;99.90;;;;;;5111239;28;20761;-76
2022/08/03 04:56:20;;;;;;;11.88;4.00;;;18.60;99.90;;;;;;5111069;28;20412;-76
2022/08/03 04:58:46;;;;;;;10.97;3.47;;;18.90;99.90;;;;;;5111312;28;20503;-76
2022/08/03 05:01:11;;;;;;;11.07;3.78;;;19.00;99.90;;;;;;5111198;28;20404;-76
2022/08/03 05:03:37;;;;;;;12.75;3.88;;;18.70;99.90;;;;;;5094233;28;20427;-75
2022/08/03 05:06:03;;;;;;;9.88;3.90;;;18.70;99.90;;;;;;5115213;28;20454;-75
2022/08/03 05:08:29;;;;;;;12.93;3.75;;;;;;;;;;5129264;28;20395;-75
2022/08/03 05:10:56;;;;;;;14.00;3.60;;;18.90;99.90;;;;;;5111129;28;20404;-75
2022/08/03 05:13:21;;;;;;;11.50;4.30;;;18.90;99.90;;;;;;5111099;28;20396;-75
2022/08/03 05:15:48;;;;;;;14.23;4.40;;;18.90;99.90;;;;;;5106634;27;20401;-76
2022/08/03 05:18:14;;;;;;;9.70;3.67;;;;;;;;;;5130381;28;20418;-76
2022/08/03 05:20:39;;;;;;;11.65;3.90;;;18.80;99.90;;;;;;5116317;28;20801;-76
2022/08/03 05:23:05;;;;;;;12.13;4.05;;;19.00;99.90;;;;;;5110979;28;20420;-76
2022/08/03 05:25:32;;;;;;;12.07;4.33;;;19.20;99.90;;;;;;5094118;28;20441;-76
2022/08/03 05:27:57;;;;;;;15.05;4.35;;;19.00;99.90;;;;;;5112687;28;20408;-76
2022/08/03 05:30:23;;;;;;;12.38;4.10;;;19.10;99.90;;;;;;5100731;28;20411;-77
2022/08/03 05:32:48;;;;;;;12.17;3.77;;;19.30;99.90;;;;;;5112227;28;20400;-77
2022/08/03 05:35:14;;;;;;;10.37;3.70;;;19.30;99.90;;;;;;5110767;28;20768;-77
2022/08/03 05:37:40;;;;;;;11.57;3.70;;;19.30;99.90;;;;;;5113694;28;20424;-77
2022/08/03 05:40:06;;;;;;;11.93;4.05;;;19.40;99.90;;;;;;5116236;27;20889;-76
2022/08/03 05:42:32;;;;;;;14.15;4.30;;;19.30;99.90;;;;;;5131153;28;20423;-76
2022/08/03 05:44:57;;;;;;;10.88;4.05;;;19.50;99.90;;;;;;5108508;28;20747;-76
2022/08/03 05:47:23;;;;;;;10.87;3.80;;;19.30;99.90;;;;;;5123169;27;20462;-76
2022/08/03 05:49:49;;;;;;;9.83;3.93;;;19.50;99.90;;;;;;5124302;27;20937;-76
2022/08/03 05:52:15;;;;;;;11.13;3.67;;;;;;;;;;5113301;28;20422;-76
2022/08/03 05:54:41;;;;;;;9.70;3.65;;;19.50;99.90;;;;;;5096651;27;20459;-76
2022/08/03 05:57:06;;;;;;;10.57;3.67;;;19.50;99.90;;;;;;5120705;27;20901;-76
2022/08/03 05:59:32;;;;;;;11.70;4.00;;;;;;;;;;5118097;27;20424;-76
2022/08/03 06:01:58;;;;;;;10.88;3.72;;;19.80;99.90;;;;;;5115399;28;20880;-76
2022/08/03 06:04:24;;;;;;;11.50;3.83;;;;;;;;;;5114493;28;20461;-76
2022/08/03 06:06:50;;;;;;;11.23;4.22;;;20.00;99.90;;;;;;5115197;27;20450;-76
2022/08/03 06:09:16;;;;;;;11.47;4.30;;;19.80;99.90;;;;;;5124258;27;20408;-76
2022/08/03 06:11:42;;;;;;;14.43;4.35;;;20.00;99.90;;;;;;5131623;27;20497;-76
2022/08/03 06:14:08;;;;;;;13.90;4.25;;;20.20;99.90;;;;;;5121356;27;20516;-75
2022/08/03 06:16:34;;;;;;;11.80;4.23;;;20.20;99.90;;;;;;5154954;27;20385;-74
2022/08/03 06:19:00;;;;;;;12.70;4.00;;;;;;;;;;5134029;27;20418;-74
2022/08/03 06:21:26;;;;;;;11.63;4.20;;;20.40;99.90;;;;;;5130496;27;20502;-73
2022/08/03 06:23:52;;;;;;;12.95;3.70;;;;;;;;;;5131786;27;20526;-73
2022/08/03 06:26:18;;;;;;;14.57;4.03;;;20.60;99.90;;;;;;5120800;27;20420;-73
2022/08/03 06:28:44;;;;;;;14.02;4.90;;;20.60;99.90;;;;;;5135984;27;20414;-74
2022/08/03 06:31:10;;;;;;;13.50;4.07;;;20.50;99.90;;;;;;5134733;27;20429;-73
2022/08/03 06:33:36;;;;;;;11.73;3.80;;;20.90;99.90;;;;;;5109346;27;20421;-73
2022/08/03 06:36:02;;;;;;;12.88;3.63;;;;;;;;;;5131856;27;20411;-73
2022/08/03 06:38:28;;;;;;;13.35;4.25;;;20.90;99.90;;;;;;5134737;27;20433;-73
2022/08/03 06:40:54;;;;;;;14.52;4.32;;;;;;;;;;5133253;27;20428;-73
2022/08/03 06:43:20;;;;;;;11.80;3.90;;;;;;;;;;5133480;27;20813;-73
2022/08/03 06:45:46;;;;;;;10.70;3.90;;;;;;;;;;5131563;27;20401;-73
2022/08/03 06:48:12;;;;;;;12.70;4.10;;;21.40;99.90;;;;;;5097886;27;20575;-73
2022/08/03 06:50:39;;;;;;;15.00;4.37;;;;;;;;;;5130751;27;20415;-73
2022/08/03 06:53:05;;;;;;;12.30;3.83;;;21.40;99.90;;;;;;5128446;27;20432;-73
2022/08/03 06:55:32;;;;;;;10.50;3.70;;;;;;;;;;5127422;27;20790;-73
2022/08/03 06:57:58;;;;;;;10.50;4.10;;;22.00;99.90;;;;;;5114226;27;20816;-72
2022/08/03 07:00:25;;;;;;;14.57;3.88;;;21.60;99.90;;;;;;5122671;27;20416;-73
2022/08/03 07:02:51;;;;;;;13.83;4.23;;;22.00;99.90;;;;;;5111846;28;20416;-73
2022/08/03 07:05:16;;;;;;;17.40;4.10;;;22.20;99.90;;;;;;5112376;28;20802;-73
2022/08/03 07:07:43;;;;;;;15.87;4.40;;;22.00;99.90;;;;;;5118985;27;20408;-73
2022/08/03 07:10:10;;;;;;;13.82;4.22;;;22.20;99.90;;;;;;5121729;27;20501;-74
2022/08/03 07:12:37;;;;;;;15.02;3.70;;;22.10;99.90;;;;;;5123980;27;20500;-75
2022/08/03 07:15:05;;;;;;;11.23;4.30;;;22.10;99.90;;;;;;5116281;27;20446;-75
2022/08/03 07:17:33;;;;;;;16.80;4.65;;;21.80;99.90;;;;;;5131071;27;20474;-75
2022/08/03 07:20:00;;;;;;;14.75;4.35;;;22.00;99.90;;;;;;5126145;27;20827;-75
2022/08/03 07:22:27;;;;;;;13.77;4.50;;;;;;;;;;5124274;27;20495;-75
2022/08/03 07:24:53;;;;;;;16.48;4.80;;;21.80;99.90;;;;;;5129129;27;20418;-76
2022/08/03 07:27:19;;;;;;;12.48;4.50;;;22.00;99.90;;;;;;5115718;27;20713;-76
2022/08/03 07:29:45;;;;;;;14.20;4.68;;;;;;;;;;5126941;27;20806;-76
2022/08/03 07:32:10;;;;;;;12.82;4.13;;;22.50;99.90;;;;;;5116370;27;20499;-76
2022/08/03 07:34:36;;;;;;;15.23;4.07;;;22.70;99.90;;;;;;5114342;27;20509;-76
2022/08/03 07:37:02;;;;;;;13.43;4.77;;;22.70;99.90;;;;;;5118489;27;20461;-76
2022/08/03 07:39:28;;;;;;;16.85;4.75;;;22.60;99.90;;;;;;5121526;27;20420;-76
2022/08/03 07:41:53;;;;;;;13.38;4.78;;;22.50;99.90;;;;;;5117250;27;20448;-75
2022/08/03 07:44:19;;;;;;;13.27;4.35;;;22.60;99.90;;;;;;5128181;27;20450;-75
2022/08/03 07:46:45;;;;;;;13.30;4.45;;;22.90;99.90;;;;;;5115074;27;20409;-76
2022/08/03 07:49:11;;;;;;;14.43;4.38;;;23.00;99.90;;;;;;5111687;27;20416;-74
2022/08/03 07:51:37;;;;;;;15.45;4.55;;;22.90;99.90;;;;;;5117383;27;20448;-74
2022/08/03 07:54:03;;;;;;;13.43;4.80;;;22.90;99.90;;;;;;5122327;27;20462;-74
2022/08/03 07:56:29;;;;;;;17.90;4.22;;;23.50;99.90;;;;;;5129696;27;20422;-74
2022/08/03 07:58:55;;;;;;;13.80;4.60;;;23.60;99.90;;;;;;5120394;27;20418;-74
2022/08/03 08:01:21;;;;;;;13.33;4.37;;;23.30;99.90;;;;;;5136248;27;20884;-74
2022/08/03 08:03:48;;;;;;;16.05;4.25;;;23.90;99.90;;;;;;5109130;27;20436;-73
2022/08/03 08:06:13;;;;;;;16.10;4.28;;;24.00;99.90;;;;;;5116692;27;20552;-74
2022/08/03 08:08:40;;;;;;;13.00;4.13;;;24.00;99.90;;;;;;5129580;27;20508;-73
2022/08/03 08:11:05;;;;;;;14.27;4.38;;;23.80;99.90;;;;;;5124985;27;20427;-73
2022/08/03 08:13:31;;;;;;;12.15;4.35;;;23.80;99.90;;;;;;5117439;27;20411;-73
2022/08/03 08:15:57;;;;;;;12.88;3.95;;;24.30;99.90;;;;;;5106139;27;20506;-74
2022/08/03 08:18:23;;;;;;;12.37;4.50;;;24.40;99.90;;;;;;5093799;27;20933;-73
2022/08/03 08:20:49;;;;;;;11.20;4.50;;;24.50;99.90;;;;;;5130182;27;20407;-73
2022/08/03 08:23:21;;;;;;;16.63;5.03;;;24.20;99.90;;;;;;5127422;27;20422;-73
2022/08/03 08:25:47;;;;;;;13.23;4.88;;;;;;;;;;5118731;27;20476;-72
2022/08/03 08:28:13;;;;;;;15.52;4.50;;;24.40;99.90;;;;;;5119311;27;20467;-73
2022/08/03 08:30:39;;;;;;;12.73;4.53;;;24.70;99.90;;;;;;5125782;27;20805;-73
2022/08/03 08:33:05;;;;;;;12.80;4.40;;;24.60;99.90;;;;;;5115453;27;20422;-73
2022/08/03 08:35:30;;;;;;;11.48;4.68;;;24.80;99.90;;;;;;5123021;27;20426;-72
2022/08/03 08:37:59;;;;;;;11.80;5.25;;;24.80;99.90;;;;;;5124505;27;20426;-71
2022/08/03 08:40:27;;;;;;;12.93;4.90;;;24.30;99.90;;;;;;5124964;27;20412;-71
2022/08/03 08:42:52;;;;;;;14.60;5.20;;;24.30;99.90;;;;;;5113693;28;20424;-72
2022/08/03 08:45:18;;;;;;;14.27;4.90;;;24.60;99.90;;;;;;5107623;27;20928;-72
2022/08/03 08:47:46;;;;;;;12.53;4.40;;;24.50;99.90;;;;;;5123599;27;20407;-72
2022/08/03 08:50:12;;;;;;;10.90;4.50;;;24.90;99.90;;;;;;5114981;28;20962;-72
2022/08/03 08:52:44;;;;;;;14.93;5.27;;;25.20;99.90;;;;;;5120583;28;20911;-72
2022/08/03 08:55:13;;;;;;;15.50;4.82;;;25.00;99.90;;;;;;5109265;28;20495;-72
2022/08/03 08:57:47;;;;;;;14.98;5.20;;;25.20;99.90;;;;;;5097086;27;20414;-72
2022/08/03 09:00:14;;;;;;;13.32;5.10;;;25.40;99.90;;;;;;5126430;27;20497;-71
2022/08/03 09:02:41;;;;;;;15.47;5.00;;;25.40;99.90;;;;;;5125945;27;20452;-71
2022/08/03 09:05:15;;;;;;;14.13;5.30;;;25.50;99.90;;;;;;5125552;27;20425;-71
2022/08/03 09:07:42;;;;;;;11.77;5.55;;;25.20;99.90;;;;;;5132313;27;20809;-72
2022/08/03 09:10:10;;;;;;;10.90;4.70;;;25.60;99.90;;;;;;5129447;27;20394;-72
2022/08/03 09:12:44;;;;;;;11.00;4.88;;;25.90;99.90;;;;;;5133278;27;20411;-72
2022/08/03 09:15:24;;;;;;;12.40;4.35;;;26.20;99.90;;;;;;5131341;27;20437;-72
2022/08/03 09:17:51;;;;;;;14.43;5.07;;;26.50;99.90;;;;;;5121379;27;20427;-72
2022/08/03 09:20:18;;;;;;;13.30;4.80;;;26.40;99.90;;;;;;5126933;27;20456;-72
2022/08/03 09:22:52;;;;;;;12.85;4.78;;;26.40;99.90;;;;;;5110167;28;20424;-72
2022/08/03 09:25:18;;;;;;;14.73;4.53;;;26.60;99.90;;;;;;5114353;27;20424;-72
2022/08/03 09:27:45;;;;;;;11.27;4.45;;;26.90;99.90;;;;;;5111054;27;20419;-72
2022/08/03 09:30:16;;;;;;;15.40;4.93;;;27.00;99.90;;;;;;5102407;27;20414;-72
2022/08/03 09:32:43;;;;;;;17.50;4.93;;;27.20;99.90;;;;;;5117732;27;20437;-72
2022/08/03 09:35:10;;;;;;;15.23;4.50;;;27.20;99.90;;;;;;5103604;27;20466;-73
2022/08/03 09:37:36;;;;;;;14.25;4.93;;;27.00;99.90;;;;;;5125549;27;20509;-72
2022/08/03 09:40:03;;;;;;;15.02;4.72;;;27.30;99.90;;;;;;5126748;27;20502;-72
2022/08/03 09:42:28;;;;;;;14.60;5.15;;;27.00;99.90;;;;;;5135908;27;20424;-72
2022/08/03 09:44:54;;;;;;;10.23;3.70;;;26.70;99.90;;;;;;5121251;27;20425;-71
2022/08/03 09:47:36;;;;;;;14.63;4.95;;;27.20;99.90;;;;;;5113653;27;20498;-72
2022/08/03 09:50:04;;;;;;;15.68;4.70;;;27.00;99.90;;;;;;5120028;27;20411;-73
2022/08/03 09:52:35;;;;;;;12.63;4.30;;;27.40;99.90;;;;;;5114287;27;20429;-72
2022/08/03 09:55:12;;;;;;;13.48;4.15;;;25.90;99.90;;;;;;5122294;27;20519;-73
2022/08/03 09:57:45;;;;;;;12.07;4.10;;;27.70;99.90;;;;;;5130233;27;20919;-73
2022/08/03 10:00:15;;;;;;;13.45;4.47;;;27.80;99.90;;;;;;5134264;27;20422;-72
2022/08/03 10:02:43;;;;;;;12.75;4.97;;;27.50;99.90;;;;;;5131383;27;20415;-74
2022/08/03 10:05:11;;;;;;;18.38;4.30;;;27.40;99.90;;;;;;5120875;27;20422;-72
2022/08/03 10:07:45;;;;;;;13.45;4.90;;;27.60;99.90;;;;;;5130452;27;20493;-72
2022/08/03 10:10:12;;;;;;;14.07;4.88;;;27.90;99.90;;;;;;5112710;27;20494;-72
2022/08/03 10:12:39;;;;;;;10.50;4.60;;;27.80;99.90;;;;;;5130274;27;20422;-72
2022/08/03 10:15:05;;;;;;;17.52;4.80;;;28.00;99.90;;;;;;5123493;27;20901;-73
2022/08/03 10:17:31;;;;;;;14.07;4.28;;;28.30;99.90;;;;;;5122997;27;20420;-72
2022/08/03 10:19:58;;;;;;;19.65;5.13;;;28.00;99.90;;;;;;5121849;27;20548;-72
2022/08/03 10:22:31;;;;;;;15.73;5.72;;;28.00;99.90;;;;;;5133660;27;20418;-73
2022/08/03 10:25:05;;;;;;;14.48;4.80;;;28.00;99.90;;;;;;5111515;27;20517;-72
2022/08/03 10:27:41;;;;;;;14.40;5.30;;;27.90;99.90;;;;;;5110856;28;20427;-73
2022/08/03 10:30:10;;;;;;;15.82;5.47;;;27.60;99.90;;;;;;5124680;27;20415;-73
2022/08/03 10:32:41;;;;;;;16.30;5.75;;;27.60;99.90;;;;;;5128133;27;20872;-72
2022/08/03 10:35:14;;;;;;;13.65;5.55;;;28.20;99.90;;;;;;5114725;27;20484;-72
2022/08/03 10:37:47;;;;;;;14.98;5.32;;;28.20;99.90;;;;;;5115690;27;20498;-73
2022/08/03 10:40:18;;;;;;;15.60;5.10;;;28.20;99.90;;;;;;5134790;27;20414;-73
2022/08/03 10:42:45;;;;;;;14.57;5.15;;;28.30;99.90;;;;;;5135166;27;20511;-74
2022/08/03 10:45:19;;;;;;;16.83;5.18;;;28.10;99.90;;;;;;5117205;27;20475;-75
2022/08/03 10:47:49;;;;;;;15.35;5.00;;;28.60;99.90;;;;;;5120719;27;20415;-76
2022/08/03 10:50:16;;;;;;;16.30;5.40;;;28.60;99.90;;;;;;5109390;27;20406;-75
2022/08/03 10:52:57;;;;;;;18.55;5.47;;;28.40;99.90;;;;;;5127766;27;21036;-75
2022/08/03 10:58:37;;;;;;;15.63;6.05;;;29.00;99.90;;;;;;5127983;27;20414;-74
2022/08/03 11:01:08;;;;;;;15.93;5.43;;;29.20;99.90;;;;;;5134268;27;20807;-74
2022/08/03 11:03:54;;;;;;;19.73;6.45;;;29.00;99.90;;;;;;5106523;27;20425;-74
2022/08/03 11:06:24;;;;;;;16.85;6.72;;;29.00;99.90;;;;;;5112221;28;20725;-74
2022/08/03 11:09:17;;;;;;;15.93;5.90;;;28.80;99.90;;;;;;5123084;27;20505;-74
2022/08/03 11:11:45;;;;;;;19.23;6.67;;;28.90;99.90;;;;;;5132451;27;20430;-74
2022/08/03 11:14:14;;;;;;;17.92;6.13;;;28.90;99.90;;;;;;5128516;27;20415;-75
2022/08/03 11:16:46;;;;;;;18.17;6.47;;;28.70;99.90;;;;;;5120161;27;20425;-74
2022/08/03 11:19:14;;;;;;;17.10;5.57;;;29.40;99.90;;;;;;5116021;27;20437;-75
2022/08/03 11:21:49;;;;;;;15.77;6.43;;;28.60;99.90;;;;;;5126753;27;20406;-74
2022/08/03 11:24:39;;;;;;;15.57;5.95;;;28.50;99.90;;;;;;5112449;27;20447;-74
2022/08/03 11:27:18;;;;;;;21.50;6.37;;;28.70;99.90;;;;;;5122840;27;20452;-75
2022/08/03 11:29:56;;;;;;;16.38;6.03;;;28.80;99.90;;;;;;5128619;27;20412;-75
2022/08/03 11:32:37;;;;;;;19.13;6.40;;;29.10;99.90;;;;;;5101448;27;20501;-74
2022/08/03 11:35:27;;;;;;;21.20;5.60;;;29.20;99.90;;;;;;5118719;27;20480;-75
2022/08/03 11:37:56;;;;;;;20.42;5.80;;;29.50;99.90;;;;;;5117918;27;20407;-75
2022/08/03 11:40:48;;;;;;;18.27;5.45;;;29.50;99.90;;;;;;5147187;27;20527;-75
2022/08/03 11:43:28;;;;;;;15.70;5.25;;;29.60;99.90;;;;;;5119212;27;20427;-74
2022/08/03 11:46:06;;;;;;;16.58;5.78;;;29.70;99.90;;;;;;5115378;27;20515;-74
2022/08/03 11:48:42;;;;;;;19.03;5.77;;;29.50;99.90;;;;;;5129502;27;20446;-74
2022/08/03 11:51:29;;;;;;;16.17;6.07;;;30.00;99.90;;;;;;5126073;27;20852;-73
2022/08/03 11:53:56;;;;;;;19.15;6.95;;;30.00;99.90;;;;;;5114115;27;20407;-74
2022/08/03 11:56:22;;;;;;;18.73;7.68;;;29.80;99.90;;;;;;5117740;27;20748;-74
2022/08/03 11:58:56;;;;;;;19.02;6.10;;;29.40;99.90;;;;;;5133071;27;20443;-76
2022/08/03 12:01:23;;;;;;;17.65;7.57;;;29.60;99.90;;;;;;5125982;27;20632;-75
2022/08/03 12:03:50;;;;;;;21.85;6.63;;;29.40;99.90;;;;;;5108317;27;20522;-75
2022/08/03 12:06:17;;;;;;;16.38;7.00;;;30.10;99.90;;;;;;5125439;27;20473;-76
2022/08/03 12:08:44;;;;;;;20.80;7.55;;;29.70;99.90;;;;;;5094225;28;20412;-76
2022/08/03 12:11:13;;;;;;;19.70;7.45;;;30.10;99.90;;;;;;5128040;27;20758;-75
2022/08/03 12:13:48;;;;;;;19.47;7.70;;;30.20;99.90;;;;;;5107638;28;20431;-75
2022/08/03 12:16:19;;;;;;;19.40;6.90;;;30.40;99.90;;;;;;5119662;27;20851;-75
2022/08/03 12:18:51;;;;;;;20.60;7.50;;;30.20;99.90;;;;;;5126549;27;20422;-76
2022/08/03 12:21:17;;;;;;;19.25;6.57;;;30.10;99.90;;;;;;5130639;27;20418;-76
2022/08/03 12:23:43;;;;;;;18.77;7.45;;;30.20;99.90;;;;;;5131278;27;20425;-76
2022/08/03 12:26:09;;;;;;;24.43;7.77;;;30.30;99.90;;;;;;5113967;27;20957;-76
2022/08/03 12:28:35;;;;;;;18.25;6.95;;;30.00;99.90;;;;;;5128264;27;20414;-76
2022/08/03 12:31:06;;;;;;;19.25;7.15;;;30.20;99.90;;;;;;5114689;27;20459;-76
2022/08/03 12:34:02;;;;;;;19.02;7.32;;;30.40;99.90;;;;;;5134711;27;21287;-76
2022/08/03 12:36:30;;;;;;;17.40;7.28;;;31.00;99.90;;;;;;5111616;28;20904;-76
2022/08/03 12:38:58;;;;;;;18.00;6.75;;;30.80;99.90;;;;;;5126596;27;20408;-76
2022/08/03 12:41:28;;;;;;;20.00;6.30;;;31.10;99.90;;;;;;5142048;27;20754;-76
2022/08/03 12:43:54;;;;;;;15.98;6.13;;;30.50;99.90;;;;;;5129816;27;20418;-76
2022/08/03 12:46:20;;;;;;;16.70;7.10;;;30.40;99.90;;;;;;5131033;27;20410;-77
2022/08/03 12:49:09;;;;;;;19.73;6.60;;;30.60;99.90;;;;;;5113772;27;20410;-76
2022/08/03 12:51:41;;;;;;;14.02;6.45;;;31.40;99.90;;;;;;5104541;28;20911;-76
2022/08/03 12:54:08;;;;;;;20.97;7.00;;;31.20;99.90;;;;;;5116749;27;20772;-76
2022/08/03 12:56:34;;;;;;;15.77;6.75;;;31.00;99.90;;;;;;5112911;28;20404;-76
2022/08/03 12:59:00;;;;;;;17.48;6.82;;;31.00;99.90;;;;;;5122592;28;20442;-77
2022/08/03 13:01:35;;;;;;;15.30;6.75;;;31.10;99.90;;;;;;5124488;27;20824;-76
2022/08/03 13:04:01;;;;;;;15.93;6.30;;;30.80;99.90;;;;;;5100460;27;20420;-77
2022/08/03 13:06:27;;;;;;;12.95;5.40;;;30.70;99.90;;;;;;5096125;28;20492;-77